Time;durP1;ratioP1;P1;durP2;ratioP2;P2;SDS_P1;SDS_P2;PMS_P1;PMS_P2;Temp;Humidity;BMP_temperature;BMP_pressure;BME280_temperature;BME280_humidity;BME280_pressure;Samples;Min_cycle;Max_cycle;Signal;HPM_P1;HPM_P2
2023/05/12 00:00:01;;;;;;;;;;;;;;;26.03;21.65;98306.00;5053232;28;20011;-83
2023/05/12 00:02:27;;;;;;;;;;;;;;;25.92;21.40;98306.31;5050016;28;20392;-83
2023/05/12 00:04:53;;;;;;;;;;;;;;;25.74;21.75;98308.75;5051765;28;20453;-83
2023/05/12 00:07:20;;;;;;;;;;;;;;;25.60;21.51;98305.53;5059975;28;19921;-83
2023/05/12 00:09:45;;;;;;;;;;;;;;;25.60;21.73;98297.84;5051004;28;19956;-82
2023/05/12 00:12:12;;;;;;;;;;;;;;;25.78;22.14;98305.88;5049875;28;19967;-83
2023/05/12 00:14:38;;;;;;;;;;;;;;;25.71;21.91;98297.63;5049166;28;19921;-83
2023/05/12 00:17:05;;;;;;;;;;;;;;;25.83;21.44;98302.53;5057732;28;20467;-83
2023/05/12 00:19:35;;;;;;;;;;;;;;;25.93;21.51;98305.06;5056770;28;20341;-83
2023/05/12 00:22:01;;;;;;;;;;;;;;;26.05;21.63;98300.72;5053136;28;20273;-83
2023/05/12 00:24:29;;;;;;;;;;;;;;;25.77;21.85;98305.06;5052286;28;19921;-84
2023/05/12 00:26:55;;;;;;;;;;;;;;;25.35;22.05;98308.88;5039917;28;19925;-84
2023/05/12 00:29:21;;;;;;;;;;;;;;;25.11;22.31;98307.47;5055519;28;19921;-83
2023/05/12 00:31:47;;;;;;;;;;;;;;;25.09;22.30;98307.06;5052087;28;19929;-83
2023/05/12 00:34:13;;;;;;;;;;;;;;;25.23;21.91;98309.56;5052370;28;20293;-84
2023/05/12 00:36:39;;;;;;;;;;;;;;;25.35;22.14;98315.31;5054171;28;19921;-84
2023/05/12 00:39:05;;;;;;;;;;;;;;;25.34;22.12;98312.94;5031855;28;20011;-84
2023/05/12 00:41:31;;;;;;;;;;;;;;;25.29;22.13;98311.44;5043100;28;19971;-83
2023/05/12 00:43:57;;;;;;;;;;;;;;;25.29;22.77;98317.06;5042572;28;19921;-83
2023/05/12 00:46:23;;;;;;;;;;;;;;;25.27;22.58;98316.72;5047917;28;19939;-83
2023/05/12 00:48:50;;;;;;;;;;;;;;;25.22;22.56;98316.44;5068261;28;19967;-83
2023/05/12 00:51:16;;;;;;;;;;;;;;;25.31;22.51;98311.00;5064515;28;19916;-83
2023/05/12 00:53:42;;;;;;;;;;;;;;;25.28;22.70;98309.84;5067766;28;20280;-83
2023/05/12 00:56:09;;;;;;;;;;;;;;;25.45;22.02;98316.31;5069730;28;19924;-83
2023/05/12 00:58:35;;;;;;;;;;;;;;;25.27;22.63;98313.91;5073046;28;20386;-83
2023/05/12 01:01:01;;;;;;;;;;;;;;;25.33;22.10;98323.38;5053318;28;19986;-83
2023/05/12 01:03:28;;;;;;;;;;;;;;;25.05;22.45;98320.41;5066014;28;20364;-84
2023/05/12 01:05:57;;;;;;;;;;;;;;;25.03;22.53;98323.66;5069197;28;19977;-83
2023/05/12 01:08:23;;;;;;;;;;;;;;;25.23;22.87;98326.44;5065820;28;19920;-83
2023/05/12 01:10:49;;;;;;;;;;;;;;;25.12;22.42;98318.25;5068276;28;19928;-83
2023/05/12 01:13:15;;;;;;;;;;;;;;;24.85;22.82;98325.28;5072576;28;19921;-83
2023/05/12 01:15:46;;;;;;;;;;;;;;;24.89;22.72;98328.81;5075748;28;19955;-83
2023/05/12 01:18:14;;;;;;;;;;;;;;;25.14;22.52;98326.22;5071223;28;20006;-83
2023/05/12 01:20:43;;;;;;;;;;;;;;;25.60;21.90;98328.78;5066114;28;20372;-83
2023/05/12 01:23:11;;;;;;;;;;;;;;;25.25;22.32;98336.00;5075060;28;20007;-83
2023/05/12 01:25:37;;;;;;;;;;;;;;;24.65;22.87;98336.47;5052985;28;19922;-83
2023/05/12 01:28:04;;;;;;;;;;;;;;;24.76;22.95;98337.09;5073957;28;20018;-83
2023/05/12 01:30:31;;;;;;;;;;;;;;;24.88;22.78;98328.00;5073917;28;20291;-83
2023/05/12 01:32:57;;;;;;;;;;;;;;;25.09;22.69;98330.34;5075674;28;20007;-83
2023/05/12 01:35:23;;;;;;;;;;;;;;;25.24;22.27;98333.66;5079402;28;20021;-83
2023/05/12 01:37:49;;;;;;;;;;;;;;;25.17;22.26;98331.78;5073624;28;19917;-83
2023/05/12 01:40:15;;;;;;;;;;;;;;;25.22;22.13;98334.09;5078154;28;19926;-83
2023/05/12 01:42:41;;;;;;;;;;;;;;;25.21;22.04;98326.88;5075807;28;19921;-83
2023/05/12 01:45:08;;;;;;;;;;;;;;;25.24;22.30;98328.81;5081697;28;19920;-83
2023/05/12 01:47:34;;;;;;;;;;;;;;;25.20;22.29;98332.94;5069660;28;19978;-83
2023/05/12 01:50:00;;;;;;;;;;;;;;;25.20;22.14;98330.94;5077782;28;19920;-83
2023/05/12 01:52:27;;;;;;;;;;;;;;;25.01;22.35;98339.38;5072530;28;19931;-83
2023/05/12 01:54:53;;;;;;;;;;;;;;;24.97;22.40;98336.63;5070083;28;19931;-83
2023/05/12 01:57:19;;;;;;;;;;;;;;;24.92;22.53;98342.78;5076836;28;20001;-83
2023/05/12 01:59:45;;;;;;;;;;;;;;;24.87;22.74;98346.09;5082631;28;19927;-83
2023/05/12 02:02:11;;;;;;;;;;;;;;;24.89;22.36;98342.84;5075415;28;19998;-83
2023/05/12 02:04:37;;;;;;;;;;;;;;;24.87;22.74;98345.28;5071482;28;19929;-83
2023/05/12 02:07:03;;;;;;;;;;;;;;;25.60;21.70;98345.66;5068375;28;19928;-83
2023/05/12 02:09:29;;;;;;;;;;;;;;;26.37;20.70;98339.34;5064049;28;19920;-83
2023/05/12 02:11:55;;;;;;;;;;;;;;;24.94;22.33;98342.34;5062745;28;19928;-83
2023/05/12 02:14:21;;;;;;;;;;;;;;;24.81;22.54;98335.81;5071547;28;19921;-83
2023/05/12 02:16:51;;;;;;;;;;;;;;;24.66;22.87;98338.88;5075891;28;19924;-83
2023/05/12 02:19:20;;;;;;;;;;;;;;;25.77;21.67;98330.38;5068278;28;20300;-83
2023/05/12 02:21:46;;;;;;;;;;;;;;;25.83;21.17;98330.66;5072655;28;19981;-83
2023/05/12 02:24:13;;;;;;;;;;;;;;;26.17;21.30;98325.38;5073807;28;20380;-85
2023/05/12 02:26:39;;;;;;;;;;;;;;;26.73;20.63;98328.66;5075597;28;19920;-85
2023/05/12 02:29:14;;;;;;;;;;;;;;;26.86;20.48;98326.69;5076278;28;19974;-85
2023/05/12 02:31:40;;;;;;;;;;;;;;;26.82;20.48;98330.81;5073366;28;20383;-85
2023/05/12 02:34:06;;;;;;;;;;;;;;;26.66;20.46;98332.47;5077345;28;19921;-85
2023/05/12 02:36:32;;;;;;;;;;;;;;;26.73;20.39;98335.06;5075306;28;19933;-83
2023/05/12 02:38:58;;;;;;;;;;;;;;;26.57;20.46;98337.94;5072262;28;20267;-83
2023/05/12 02:41:24;;;;;;;;;;;;;;;26.62;20.19;98337.41;5067914;28;20544;-83
2023/05/12 02:43:50;;;;;;;;;;;;;;;26.58;20.95;98336.69;5067712;28;19974;-83
2023/05/12 02:46:16;;;;;;;;;;;;;;;25.67;21.46;98339.09;5066725;28;19928;-84
2023/05/12 02:48:42;;;;;;;;;;;;;;;24.64;22.67;98343.34;5074566;28;20225;-83
2023/05/12 02:51:09;;;;;;;;;;;;;;;24.56;22.69;98339.88;5078474;28;19977;-84
2023/05/12 02:53:35;;;;;;;;;;;;;;;24.52;22.75;98341.97;5072472;28;20307;-83
2023/05/12 02:56:01;;;;;;;;;;;;;;;24.46;22.58;98334.44;5075388;28;19935;-84
2023/05/12 02:58:27;;;;;;;;;;;;;;;24.33;22.71;98339.13;5070539;28;19927;-84
2023/05/12 03:00:53;;;;;;;;;;;;;;;24.22;23.06;98338.53;5074317;28;19968;-83
2023/05/12 03:03:19;;;;;;;;;;;;;;;24.13;23.35;98333.50;5066795;28;19920;-84
2023/05/12 03:05:46;;;;;;;;;;;;;;;24.27;23.00;98343.66;5070072;28;21720;-83
2023/05/12 03:08:12;;;;;;;;;;;;;;;24.26;23.05;98336.44;5060420;28;20040;-83
2023/05/12 03:10:38;;;;;;;;;;;;;;;24.35;22.77;98337.47;5073391;28;19920;-84
2023/05/12 03:13:04;;;;;;;;;;;;;;;24.26;23.07;98333.66;5072637;28;20824;-83
2023/05/12 03:15:30;;;;;;;;;;;;;;;24.42;23.14;98336.53;5065202;28;19924;-83
2023/05/12 03:17:56;;;;;;;;;;;;;;;24.34;23.46;98337.91;5079984;28;20379;-83
2023/05/12 03:20:22;;;;;;;;;;;;;;;24.43;22.97;98338.94;5071575;28;20019;-83
2023/05/12 03:22:48;;;;;;;;;;;;;;;24.55;22.91;98332.66;5075079;28;19969;-84
2023/05/12 03:25:15;;;;;;;;;;;;;;;24.47;23.03;98336.84;5077716;28;20372;-83
2023/05/12 03:27:42;;;;;;;;;;;;;;;23.93;23.87;98327.78;5075684;28;19920;-84
2023/05/12 03:30:08;;;;;;;;;;;;;;;24.13;23.49;98329.88;5067328;28;19936;-83
2023/05/12 03:32:34;;;;;;;;;;;;;;;25.49;21.87;98333.09;5083321;28;20406;-83
2023/05/12 03:35:00;;;;;;;;;;;;;;;26.21;20.74;98333.75;5072762;28;19960;-83
2023/05/12 03:37:26;;;;;;;;;;;;;;;25.98;21.14;98338.28;5081153;28;19921;-83
2023/05/12 03:39:54;;;;;;;;;;;;;;;26.04;21.00;98335.75;5076951;28;19924;-83
2023/05/12 03:42:22;;;;;;;;;;;;;;;26.27;20.79;98344.00;5071766;28;19920;-83
2023/05/12 03:44:51;;;;;;;;;;;;;;;24.92;22.92;98351.22;5065068;28;19925;-86
2023/05/12 03:47:17;;;;;;;;;;;;;;;25.19;22.86;98346.19;5067194;28;19930;-86
2023/05/12 03:49:44;;;;;;;;;;;;;;;25.46;22.74;98346.03;5074990;28;19924;-86
2023/05/12 03:52:10;;;;;;;;;;;;;;;25.78;22.40;98348.06;5085218;28;19928;-85
2023/05/12 03:54:36;;;;;;;;;;;;;;;25.99;23.34;98342.69;5071672;28;19926;-86
2023/05/12 03:57:02;;;;;;;;;;;;;;;26.46;22.52;98354.34;5069278;28;19944;-86
2023/05/12 03:59:31;;;;;;;;;;;;;;;26.41;22.84;98352.06;5076524;28;20384;-85
2023/05/12 04:01:57;;;;;;;;;;;;;;;26.68;23.33;98352.53;5073351;28;20311;-86
2023/05/12 04:04:23;;;;;;;;;;;;;;;27.12;22.84;98356.50;5085182;28;19924;-86
2023/05/12 04:06:49;;;;;;;;;;;;;;;27.53;22.79;98358.50;5080675;28;19927;-86
2023/05/12 04:09:15;;;;;;;;;;;;;;;27.52;23.27;98358.94;5070725;28;20334;-86
2023/05/12 04:11:41;;;;;;;;;;;;;;;27.85;22.91;98349.78;5075984;28;20379;-84
2023/05/12 04:14:08;;;;;;;;;;;;;;;28.17;22.39;98357.19;5075492;28;19980;-84
2023/05/12 04:16:34;;;;;;;;;;;;;;;28.08;22.77;98357.09;5066762;28;19916;-85
2023/05/12 04:19:00;;;;;;;;;;;;;;;28.31;21.85;98356.72;5063003;28;19931;-85
2023/05/12 04:21:26;;;;;;;;;;;;;;;28.32;22.48;98358.31;5079040;28;19920;-84
2023/05/12 04:23:52;;;;;;;;;;;;;;;28.46;23.12;98357.81;5061558;28;20395;-84
2023/05/12 04:26:19;;;;;;;;;;;;;;;28.74;22.63;98364.50;5057236;28;19989;-84
2023/05/12 04:28:46;;;;;;;;;;;;;;;28.86;22.24;98360.03;5070752;28;19916;-84
2023/05/12 04:31:12;;;;;;;;;;;;;;;28.56;22.86;98350.19;5060891;28;19920;-85
2023/05/12 04:33:38;;;;;;;;;;;;;;;28.60;22.74;98360.16;5063043;28;19944;-84
2023/05/12 04:36:05;;;;;;;;;;;;;;;28.63;22.90;98359.25;5051894;28;20656;-85
2023/05/12 04:38:31;;;;;;;;;;;;;;;28.77;22.45;98362.78;5064672;28;19927;-84
2023/05/12 04:40:57;;;;;;;;;;;;;;;28.86;22.04;98363.66;5059935;28;19921;-85
2023/05/12 04:43:23;;;;;;;;;;;;;;;28.84;21.94;98360.50;5061474;28;20330;-84
2023/05/12 04:45:50;;;;;;;;;;;;;;;29.07;21.79;98371.34;5064868;28;20376;-86
2023/05/12 04:48:16;;;;;;;;;;;;;;;29.09;23.04;98373.69;5047176;28;19925;-86
2023/05/12 04:50:42;;;;;;;;;;;;;;;29.38;21.81;98375.00;5065631;28;19927;-86
2023/05/12 04:53:08;;;;;;;;;;;;;;;29.66;21.47;98373.13;5050989;28;19956;-86
2023/05/12 04:55:35;;;;;;;;;;;;;;;29.62;20.95;98372.44;5053808;28;19967;-86
2023/05/12 04:58:01;;;;;;;;;;;;;;;29.48;22.96;98378.66;5056635;28;20019;-87
2023/05/12 05:00:27;;;;;;;;;;;;;;;29.66;22.75;98375.16;5043230;28;19927;-85
2023/05/12 05:02:53;;;;;;;;;;;;;;;29.90;21.91;98374.16;5094062;28;20291;-85
2023/05/12 05:05:19;;;;;;;;;;;;;;;30.02;21.69;98378.13;5079939;28;19916;-85
2023/05/12 05:07:45;;;;;;;;;;;;;;;30.28;20.42;98373.00;5076803;28;19917;-85
2023/05/12 05:10:11;;;;;;;;;;;;;;;30.01;21.66;98371.66;5077429;28;20007;-85
2023/05/12 05:12:37;;;;;;;;;;;;;;;30.00;21.89;98380.66;5075054;28;19923;-85
2023/05/12 05:15:03;;;;;;;;;;;;;;;29.96;21.13;98380.00;5077081;28;19920;-85
2023/05/12 05:17:29;;;;;;;;;;;;;;;28.12;22.60;98382.41;5075960;28;20400;-85
2023/05/12 05:19:55;;;;;;;;;;;;;;;28.62;22.59;98380.25;5076521;28;20388;-84
2023/05/12 05:22:21;;;;;;;;;;;;;;;28.12;23.91;98376.78;5077041;28;19916;-84
2023/05/12 05:24:47;;;;;;;;;;;;;;;28.22;22.63;98384.88;5077063;28;20271;-84
2023/05/12 05:27:13;;;;;;;;;;;;;;;27.43;23.25;98393.47;5077098;28;19963;-84
2023/05/12 05:29:39;;;;;;;;;;;;;;;28.00;23.07;98379.16;5076835;28;19919;-85
2023/05/12 05:32:05;;;;;;;;;;;;;;;27.38;23.36;98394.00;5068079;28;19927;-84
2023/05/12 05:34:31;;;;;;;;;;;;;;;28.05;23.40;98401.16;5076337;28;20367;-84
2023/05/12 05:36:57;;;;;;;;;;;;;;;28.34;24.90;98398.16;5076703;28;19913;-84
2023/05/12 05:39:24;;;;;;;;;;;;;;;28.43;22.42;98391.81;5076661;28;19927;-84
2023/05/12 05:41:50;;;;;;;;;;;;;;;28.26;23.54;98396.84;5071683;28;19913;-84
2023/05/12 05:44:16;;;;;;;;;;;;;;;28.06;22.96;98402.75;5050739;28;19923;-84
2023/05/12 05:46:42;;;;;;;;;;;;;;;28.19;22.90;98393.47;5038640;28;19927;-84
2023/05/12 05:49:08;;;;;;;;;;;;;;;28.42;22.72;98395.91;5044075;28;20011;-85
2023/05/12 05:51:34;;;;;;;;;;;;;;;28.53;25.66;98394.28;5054671;28;19930;-84
2023/05/12 05:54:00;;;;;;;;;;;;;;;28.95;21.87;98394.81;5052000;28;19921;-84
2023/05/12 05:56:26;;;;;;;;;;;;;;;27.78;22.41;98406.47;5051004;28;19982;-85
2023/05/12 05:58:52;;;;;;;;;;;;;;;26.99;23.11;98402.81;5039154;28;20754;-84
2023/05/12 06:01:18;;;;;;;;;;;;;;;27.97;24.74;98407.47;5052071;28;19979;-84
2023/05/12 06:03:44;;;;;;;;;;;;;;;28.93;22.47;98397.31;5045753;28;20396;-84
2023/05/12 06:06:10;;;;;;;;;;;;;;;27.56;25.20;98408.38;5069155;28;19946;-85
2023/05/12 06:08:36;;;;;;;;;;;;;;;26.49;25.43;98406.19;5056436;28;20425;-84
2023/05/12 06:11:02;;;;;;;;;;;;;;;26.12;24.86;98404.72;5042683;28;20015;-84
2023/05/12 06:13:28;;;;;;;;;;;;;;;26.42;24.75;98414.81;5028184;28;19933;-84
2023/05/12 06:15:54;;;;;;;;;;;;;;;23.92;29.92;98417.97;5043146;28;19920;-83
2023/05/12 06:18:21;;;;;;;;;;;;;;;26.17;25.51;98403.38;5049745;28;20332;-85
2023/05/12 06:20:47;;;;;;;;;;;;;;;26.51;27.08;98407.31;5053403;28;19925;-84
2023/05/12 06:23:13;;;;;;;;;;;;;;;26.11;26.73;98407.97;5053109;28;19967;-81
2023/05/12 06:25:39;;;;;;;;;;;;;;;26.19;25.38;98407.34;5041447;28;19921;-81
2023/05/12 06:28:05;;;;;;;;;;;;;;;26.94;24.31;98412.59;5040602;28;19983;-83
2023/05/12 06:30:31;;;;;;;;;;;;;;;25.27;27.78;98409.47;5052719;28;19921;-85
2023/05/12 06:32:58;;;;;;;;;;;;;;;27.20;23.68;98402.97;5053288;28;19927;-84
2023/05/12 06:35:24;;;;;;;;;;;;;;;26.69;24.42;98402.00;5051998;28;19932;-83
2023/05/12 06:37:50;;;;;;;;;;;;;;;25.96;25.23;98407.50;5046133;28;19917;-84
2023/05/12 06:40:16;;;;;;;;;;;;;;;27.17;25.26;98403.06;5037639;28;19947;-83
2023/05/12 06:42:42;;;;;;;;;;;;;;;27.44;24.53;98405.53;5053795;28;19928;-83
2023/05/12 06:45:10;;;;;;;;;;;;;;;26.78;26.90;98418.28;5053991;28;19921;-83
2023/05/12 06:47:36;;;;;;;;;;;;;;;24.30;30.17;98410.13;5069816;28;19920;-83
2023/05/12 06:50:02;;;;;;;;;;;;;;;25.56;28.03;98406.03;5072536;28;20288;-83
2023/05/12 06:52:28;;;;;;;;;;;;;;;24.42;29.53;98403.91;5075267;28;19944;-84
2023/05/12 06:54:54;;;;;;;;;;;;;;;25.42;29.26;98412.72;5055154;28;19972;-84
2023/05/12 06:57:20;;;;;;;;;;;;;;;24.89;28.84;98411.06;5056270;28;19924;-84
2023/05/12 06:59:46;;;;;;;;;;;;;;;24.57;27.75;98419.28;5054976;28;19986;-84
2023/05/12 07:02:12;;;;;;;;;;;;;;;25.32;27.29;98411.75;5064883;28;20326;-83
2023/05/12 07:04:38;;;;;;;;;;;;;;;25.51;27.62;98415.78;5070545;28;20362;-83
2023/05/12 07:07:04;;;;;;;;;;;;;;;26.01;26.10;98413.41;5062669;28;19964;-84
2023/05/12 07:09:30;;;;;;;;;;;;;;;25.63;27.05;98415.09;5056373;28;19962;-84
2023/05/12 07:11:56;;;;;;;;;;;;;;;26.05;25.19;98416.91;5064343;28;19956;-84
2023/05/12 07:14:22;;;;;;;;;;;;;;;25.03;27.46;98422.00;5051795;28;19936;-85
2023/05/12 07:16:48;;;;;;;;;;;;;;;26.50;24.20;98414.19;5054824;28;20365;-84
2023/05/12 07:19:14;;;;;;;;;;;;;;;26.99;25.74;98426.16;5036469;28;19916;-83
2023/05/12 07:21:41;;;;;;;;;;;;;;;24.39;28.03;98418.78;5057256;28;19921;-84
2023/05/12 07:24:07;;;;;;;;;;;;;;;24.21;28.69;98432.34;5053951;28;19921;-83
2023/05/12 07:26:33;;;;;;;;;;;;;;;24.81;28.84;98415.22;5054410;28;19921;-82
2023/05/12 07:28:59;;;;;;;;;;;;;;;24.22;30.47;98419.91;5053994;28;19920;-82
2023/05/12 07:31:25;;;;;;;;;;;;;;;26.08;27.61;98412.44;5054119;28;19939;-81
2023/05/12 07:33:51;;;;;;;;;;;;;;;25.98;26.69;98417.06;5053984;28;20376;-80
2023/05/12 07:36:17;;;;;;;;;;;;;;;27.02;26.53;98416.81;5058004;28;19927;-83
2023/05/12 07:38:43;;;;;;;;;;;;;;;25.56;28.41;98420.09;5070151;28;19936;-82
2023/05/12 07:41:09;;;;;;;;;;;;;;;25.00;28.76;98417.25;5033963;28;19956;-83
2023/05/12 07:43:35;;;;;;;;;;;;;;;25.64;28.55;98415.91;5034063;28;19917;-85
2023/05/12 07:46:01;;;;;;;;;;;;;;;27.49;24.92;98419.88;5051658;28;19970;-83
2023/05/12 07:48:27;;;;;;;;;;;;;;;28.46;24.05;98413.50;5061983;28;19921;-83
2023/05/12 07:50:54;;;;;;;;;;;;;;;27.23;25.10;98418.22;5054171;28;19921;-83
2023/05/12 07:53:20;;;;;;;;;;;;;;;28.73;23.66;98417.41;5048105;28;19925;-85
2023/05/12 07:55:46;;;;;;;;;;;;;;;28.42;22.10;98413.66;5051033;28;19921;-85
2023/05/12 07:58:12;;;;;;;;;;;;;;;27.04;25.87;98408.69;5053428;28;20292;-86
2023/05/12 08:00:39;;;;;;;;;;;;;;;26.67;25.28;98417.75;5054318;28;19986;-86
2023/05/12 08:03:06;;;;;;;;;;;;;;;26.60;25.50;98415.94;5054206;28;20360;-87
2023/05/12 08:05:32;;;;;;;;;;;;;;;27.37;25.61;98415.81;5053969;28;20046;-85
2023/05/12 08:07:58;;;;;;;;;;;;;;;27.98;24.31;98406.22;5053894;28;20073;-85
2023/05/12 08:10:28;;;;;;;;;;;;;;;26.77;27.54;98416.69;5053858;28;20014;-85
2023/05/12 08:12:55;;;;;;;;;;;;;;;28.12;25.00;98405.81;5053706;28;19922;-85
2023/05/12 08:15:21;;;;;;;;;;;;;;;26.62;28.19;98419.09;5053678;28;20342;-84
2023/05/12 08:17:47;;;;;;;;;;;;;;;27.15;27.83;98419.66;5053683;28;19917;-85
2023/05/12 08:20:13;;;;;;;;;;;;;;;26.52;27.88;98414.53;5053778;28;19970;-86
2023/05/12 08:22:39;;;;;;;;;;;;;;;27.80;23.91;98418.06;5052684;28;19924;-84
2023/05/12 08:25:06;;;;;;;;;;;;;;;27.87;24.79;98409.38;5053501;28;19916;-84
2023/05/12 08:27:32;;;;;;;;;;;;;;;26.59;27.51;98405.09;5069638;28;20363;-85
2023/05/12 08:29:58;;;;;;;;;;;;;;;26.89;25.78;98412.34;5057213;28;19923;-86
2023/05/12 08:32:24;;;;;;;;;;;;;;;28.74;24.65;98401.25;5073556;28;19921;-85
2023/05/12 08:34:50;;;;;;;;;;;;;;;29.21;24.04;98403.97;5067462;28;20329;-85
2023/05/12 08:37:16;;;;;;;;;;;;;;;28.42;25.17;98413.66;5053597;28;19960;-85
2023/05/12 08:39:42;;;;;;;;;;;;;;;28.24;25.81;98409.84;5037022;28;19939;-84
2023/05/12 08:42:27;;;;;;;;;;;;;;;27.52;25.29;98418.97;5053149;28;20376;-85
2023/05/12 08:44:53;;;;;;;;;;;;;;;26.98;26.28;98418.16;5053282;28;20622;-85
2023/05/12 08:47:21;;;;;;;;;;;;;;;27.97;24.31;98418.75;5053337;28;19971;-84
2023/05/12 08:49:57;;;;;;;;;;;;;;;28.54;23.86;98407.16;5053347;28;20391;-85
2023/05/12 08:52:24;;;;;;;;;;;;;;;27.33;24.14;98417.88;5055392;28;20017;-86
2023/05/12 08:54:50;;;;;;;;;;;;;;;28.52;22.34;98412.47;5073608;28;19963;-84
2023/05/12 08:57:16;;;;;;;;;;;;;;;28.77;23.33;98414.47;5068041;28;20402;-85
2023/05/12 08:59:45;;;;;;;;;;;;;;;29.01;22.55;98414.81;5073339;28;19986;-85
2023/05/12 09:02:12;;;;;;;;;;;;;;;28.95;23.58;98402.50;5073323;28;19912;-84
2023/05/12 09:04:38;;;;;;;;;;;;;;;29.51;23.41;98419.41;5055270;28;20293;-85
2023/05/12 09:07:07;;;;;;;;;;;;;;;29.45;22.14;98412.78;5073316;28;19960;-86
2023/05/12 09:09:34;;;;;;;;;;;;;;;30.55;20.69;98412.75;5073167;28;19920;-85
2023/05/12 09:12:01;;;;;;;;;;;;;;;30.91;19.49;98418.47;5072939;28;20439;-85
2023/05/12 09:14:28;;;;;;;;;;;;;;;29.90;20.14;98413.81;5073093;28;19917;-85
2023/05/12 09:16:58;;;;;;;;;;;;;;;27.94;22.44;98420.44;5073521;28;20015;-86
2023/05/12 09:19:24;;;;;;;;;;;;;;;27.42;22.82;98420.88;5073170;28;19920;-85
2023/05/12 09:21:50;;;;;;;;;;;;;;;27.39;23.21;98416.13;5073178;28;20010;-84
2023/05/12 09:24:16;;;;;;;;;;;;;;;27.27;24.12;98416.88;5055167;28;19917;-85
2023/05/12 09:26:46;;;;;;;;;;;;;;;27.18;22.75;98424.41;5072488;28;20027;-85
2023/05/12 09:29:12;;;;;;;;;;;;;;;27.88;20.64;98424.28;5054662;28;19916;-85
2023/05/12 09:31:47;;;;;;;;;;;;;;;28.45;22.12;98407.06;5054605;28;19917;-84
2023/05/12 09:34:13;;;;;;;;;;;;;;;29.74;18.57;98404.72;5076748;28;19920;-86
2023/05/12 09:36:40;;;;;;;;;;;;;;;29.45;21.97;98407.13;5076493;28;19939;-86
2023/05/12 09:39:08;;;;;;;;;;;;;;;30.66;18.74;98419.53;5072287;28;21279;-84
2023/05/12 09:41:38;;;;;;;;;;;;;;;31.28;19.23;98417.16;5073008;28;19916;-84
2023/05/12 09:44:05;;;;;;;;;;;;;;;31.74;17.35;98409.34;5072951;28;19970;-84
2023/05/12 09:46:31;;;;;;;;;;;;;;;32.20;18.33;98415.66;5074471;28;20273;-84
2023/05/12 09:48:58;;;;;;;;;;;;;;;31.24;17.83;98405.22;5076036;28;20387;-84
2023/05/12 09:51:28;;;;;;;;;;;;;;;30.02;18.07;98414.94;5076582;28;19924;-85
2023/05/12 09:53:54;;;;;;;;;;;;;;;27.86;22.03;98421.13;5076335;28;19963;-86
2023/05/12 09:56:20;;;;;;;;;;;;;;;26.96;22.38;98429.84;5076376;28;19923;-84
2023/05/12 09:58:46;;;;;;;;;;;;;;;28.50;19.51;98414.97;5075971;28;20394;-85
2023/05/12 10:01:14;;;;;;;;;;;;;;;29.87;19.26;98419.63;5075817;28;19920;-85
2023/05/12 10:03:41;;;;;;;;;;;;;;;30.12;18.41;98413.72;5076780;28;19916;-85
2023/05/12 10:06:14;;;;;;;;;;;;;;;29.66;19.94;98423.28;5075861;28;20066;-86
2023/05/12 10:08:47;;;;;;;;;;;;;;;28.75;19.59;98412.06;5076009;28;19963;-85
2023/05/12 10:11:13;;;;;;;;;;;;;;;28.13;19.26;98417.84;5075897;28;20007;-85
2023/05/12 10:13:39;;;;;;;;;;;;;;;27.44;21.93;98416.81;5075996;28;19924;-84
2023/05/12 10:16:06;;;;;;;;;;;;;;;27.11;21.74;98433.84;5076215;28;19921;-85
2023/05/12 10:18:32;;;;;;;;;;;;;;;28.28;21.74;98416.94;5075746;28;19916;-84
2023/05/12 10:20:59;;;;;;;;;;;;;;;28.04;22.70;98421.38;5075765;28;20311;-84
2023/05/12 10:23:26;;;;;;;;;;;;;;;28.48;22.07;98411.81;5075325;28;19912;-84
2023/05/12 10:26:00;;;;;;;;;;;;;;;28.06;22.89;98407.59;5095203;28;19916;-84
2023/05/12 10:28:27;;;;;;;;;;;;;;;28.39;21.26;98408.91;5096201;28;20386;-84
2023/05/12 10:30:54;;;;;;;;;;;;;;;28.12;22.74;98407.81;5087769;28;19952;-86
2023/05/12 10:33:21;;;;;;;;;;;;;;;28.95;20.55;98406.13;5075648;28;19916;-84
2023/05/12 10:35:47;;;;;;;;;;;;;;;29.21;22.69;98401.94;5066089;28;19979;-85
2023/05/12 10:38:15;;;;;;;;;;;;;;;28.67;23.07;98404.31;5055119;28;19917;-84
2023/05/12 10:40:57;;;;;;;;;;;;;;;29.26;22.27;98397.72;5074941;28;19923;-85
2023/05/12 10:43:23;;;;;;;;;;;;;;;30.36;21.36;98397.78;5079148;28;19928;-84
2023/05/12 10:46:05;;;;;;;;;;;;;;;29.52;22.20;98392.69;5079513;28;19946;-84
2023/05/12 10:48:31;;;;;;;;;;;;;;;29.25;20.28;98396.94;5093615;28;20425;-83
2023/05/12 10:51:05;;;;;;;;;;;;;;;28.94;19.30;98398.88;5095516;28;20280;-84
2023/05/12 10:53:34;;;;;;;;;;;;;;;29.69;18.74;98406.13;5095054;28;20007;-85
2023/05/12 10:56:04;;;;;;;;;;;;;;;30.77;17.97;98402.06;5088832;28;20372;-85
2023/05/12 10:58:31;;;;;;;;;;;;;;;31.71;17.45;98407.47;5068103;28;20295;-85
2023/05/12 11:01:04;;;;;;;;;;;;;;;30.11;19.37;98394.38;5065473;28;19923;-85
2023/05/12 11:03:32;;;;;;;;;;;;;;;29.62;21.03;98411.28;5075134;28;19920;-84
2023/05/12 11:06:03;;;;;;;;;;;;;;;29.19;19.48;98409.31;5077238;28;19981;-84
2023/05/12 11:08:30;;;;;;;;;;;;;;;28.15;22.11;98404.06;5062247;28;20326;-85
2023/05/12 11:10:57;;;;;;;;;;;;;;;28.56;20.27;98395.41;5094901;28;19931;-84
2023/05/12 11:13:23;;;;;;;;;;;;;;;28.63;21.58;98398.81;5085594;28;19924;-84
2023/05/12 11:15:50;;;;;;;;;;;;;;;28.38;19.44;98386.78;5075154;28;19927;-85
2023/05/12 11:18:19;;;;;;;;;;;;;;;27.85;22.74;98403.41;5074906;28;20380;-84
2023/05/12 11:20:45;;;;;;;;;;;;;;;28.33;20.84;98398.63;5074834;28;20061;-85
2023/05/12 11:23:12;;;;;;;;;;;;;;;28.28;18.91;98387.91;5078118;28;19920;-85
2023/05/12 11:25:38;;;;;;;;;;;;;;;28.12;21.90;98388.84;5074583;28;19924;-84
2023/05/12 11:28:09;;;;;;;;;;;;;;;27.11;22.39;98404.88;5092931;28;19970;-85
2023/05/12 11:30:36;;;;;;;;;;;;;;;27.12;20.60;98412.09;5083375;28;20387;-84
2023/05/12 11:33:02;;;;;;;;;;;;;;;27.61;20.41;98402.16;5074345;28;20356;-84
2023/05/12 11:35:29;;;;;;;;;;;;;;;27.78;20.30;98403.63;5088044;28;19924;-84
2023/05/12 11:37:55;;;;;;;;;;;;;;;28.74;20.89;98401.25;5079332;28;20039;-84
2023/05/12 11:40:21;;;;;;;;;;;;;;;28.71;20.22;98396.50;5087402;28;20390;-84
2023/05/12 11:42:50;;;;;;;;;;;;;;;29.19;19.62;98395.97;5094779;28;19912;-84
2023/05/12 11:45:24;;;;;;;;;;;;;;;28.80;21.18;98392.97;5094387;28;19963;-84
2023/05/12 11:47:51;;;;;;;;;;;;;;;30.57;17.67;98398.91;5081008;28;19983;-84
2023/05/12 11:50:23;;;;;;;;;;;;;;;29.74;20.02;98405.53;5073822;28;19917;-85
2023/05/12 11:52:50;;;;;;;;;;;;;;;28.67;20.24;98390.19;5074068;28;19917;-85
2023/05/12 11:55:22;;;;;;;;;;;;;;;28.85;20.79;98400.84;5076775;28;19920;-84
2023/05/12 11:57:58;;;;;;;;;;;;;;;29.80;18.61;98400.09;5081370;28;19981;-84
2023/05/12 12:00:28;;;;;;;;;;;;;;;30.35;19.17;98398.22;5090986;28;19924;-84
2023/05/12 12:03:05;;;;;;;;;;;;;;;30.60;17.30;98395.09;5088295;28;20029;-85
2023/05/12 12:05:31;;;;;;;;;;;;;;;30.18;20.57;98391.25;5086175;28;19927;-85
2023/05/12 12:08:05;;;;;;;;;;;;;;;30.16;18.95;98388.06;5075813;28;19977;-84
2023/05/12 12:10:31;;;;;;;;;;;;;;;28.68;21.83;98381.25;5089516;28;19961;-85
2023/05/12 12:12:58;;;;;;;;;;;;;;;27.63;21.27;98396.09;5073786;28;20404;-84
2023/05/12 12:15:24;;;;;;;;;;;;;;;28.57;22.08;98388.50;5073898;28;19925;-84
2023/05/12 12:17:50;;;;;;;;;;;;;;;28.54;21.75;98393.03;5073916;28;19920;-85
2023/05/12 12:20:17;;;;;;;;;;;;;;;28.88;21.19;98383.78;5073518;28;19917;-84
2023/05/12 12:22:43;;;;;;;;;;;;;;;29.35;18.53;98395.75;5073419;28;19972;-84
2023/05/12 12:25:09;;;;;;;;;;;;;;;28.93;21.26;98385.22;5073823;28;19917;-84
2023/05/12 12:27:35;;;;;;;;;;;;;;;28.35;20.77;98402.59;5073560;28;20007;-85
2023/05/12 12:30:02;;;;;;;;;;;;;;;28.93;19.58;98393.69;5073376;28;19956;-84
2023/05/12 12:32:28;;;;;;;;;;;;;;;28.57;20.74;98394.16;5072568;28;20007;-84
2023/05/12 12:34:58;;;;;;;;;;;;;;;29.16;19.93;98396.84;5054484;28;19955;-84
2023/05/12 12:37:24;;;;;;;;;;;;;;;30.14;18.58;98399.09;5084349;28;20334;-84
2023/05/12 12:39:50;;;;;;;;;;;;;;;30.44;20.70;98390.53;5073466;28;19916;-85
2023/05/12 12:42:16;;;;;;;;;;;;;;;29.92;18.89;98388.63;5073710;28;19917;-84
2023/05/12 12:44:44;;;;;;;;;;;;;;;29.05;22.30;98406.97;5072312;28;20319;-85